sensor_id;sensor_type;location;lat;lon;timestamp;P1;durP1;ratioP1;P2;durP2;ratioP2
46921;SDS011;44039;48.336;10.454;2022-07-30T00:02:36;107.28;;;102.65;;
46921;SDS011;44039;48.336;10.454;2022-07-30T00:05:23;103.45;;;98.97;;
46921;SDS011;44039;48.336;10.454;2022-07-30T00:08:11;107.63;;;102.82;;
46921;SDS011;44039;48.336;10.454;2022-07-30T00:10:58;101.60;;;97.18;;
46921;SDS011;44039;48.336;10.454;2022-07-30T00:13:44;106.82;;;102.22;;
46921;SDS011;44039;48.336;10.454;2022-07-30T00:16:31;108.45;;;103.75;;
46921;SDS011;44039;48.336;10.454;2022-07-30T00:19:19;103.95;;;99.55;;
46921;SDS011;44039;48.336;10.454;2022-07-30T00:22:08;104.72;;;100.32;;
46921;SDS011;44039;48.336;10.454;2022-07-30T00:24:55;100.47;;;96.03;;
46921;SDS011;44039;48.336;10.454;2022-07-30T00:27:42;104.10;;;99.32;;
46921;SDS011;44039;48.336;10.454;2022-07-30T00:30:29;106.00;;;101.53;;
46921;SDS011;44039;48.336;10.454;2022-07-30T00:33:17;103.50;;;98.70;;
46921;SDS011;44039;48.336;10.454;2022-07-30T00:36:03;103.25;;;98.85;;
46921;SDS011;44039;48.336;10.454;2022-07-30T00:38:51;104.45;;;99.43;;
46921;SDS011;44039;48.336;10.454;2022-07-30T00:44:48;99.60;;;95.40;;
46921;SDS011;44039;48.336;10.454;2022-07-30T00:47:36;102.90;;;98.70;;
46921;SDS011;44039;48.336;10.454;2022-07-30T00:50:23;102.38;;;97.97;;
46921;SDS011;44039;48.336;10.454;2022-07-30T00:53:10;101.20;;;96.82;;
46921;SDS011;44039;48.336;10.454;2022-07-30T00:55:57;100.55;;;96.25;;
46921;SDS011;44039;48.336;10.454;2022-07-30T00:58:44;102.25;;;97.85;;
46921;SDS011;44039;48.336;10.454;2022-07-30T01:01:31;103.80;;;99.38;;
46921;SDS011;44039;48.336;10.454;2022-07-30T01:04:19;104.25;;;99.70;;
46921;SDS011;44039;48.336;10.454;2022-07-30T01:07:06;102.50;;;98.05;;
46921;SDS011;44039;48.336;10.454;2022-07-30T01:09:53;99.60;;;95.10;;
46921;SDS011;44039;48.336;10.454;2022-07-30T01:12:41;102.10;;;97.70;;
46921;SDS011;44039;48.336;10.454;2022-07-30T01:15:28;103.65;;;99.22;;
46921;SDS011;44039;48.336;10.454;2022-07-30T01:18:15;99.93;;;95.75;;
46921;SDS011;44039;48.336;10.454;2022-07-30T01:21:04;103.82;;;99.22;;
46921;SDS011;44039;48.336;10.454;2022-07-30T01:23:55;99.07;;;94.78;;
46921;SDS011;44039;48.336;10.454;2022-07-30T01:26:49;101.57;;;97.07;;
46921;SDS011;44039;48.336;10.454;2022-07-30T01:29:37;105.30;;;100.70;;
46921;SDS011;44039;48.336;10.454;2022-07-30T01:32:28;104.32;;;99.78;;
46921;SDS011;44039;48.336;10.454;2022-07-30T01:35:17;100.38;;;95.40;;
46921;SDS011;44039;48.336;10.454;2022-07-30T01:38:07;102.05;;;97.65;;
46921;SDS011;44039;48.336;10.454;2022-07-30T01:40:56;106.45;;;101.45;;
46921;SDS011;44039;48.336;10.454;2022-07-30T01:43:45;100.95;;;96.53;;
46921;SDS011;44039;48.336;10.454;2022-07-30T01:46:33;101.82;;;97.43;;
46921;SDS011;44039;48.336;10.454;2022-07-30T01:49:21;99.82;;;95.50;;
46921;SDS011;44039;48.336;10.454;2022-07-30T01:52:09;97.15;;;93.00;;
46921;SDS011;44039;48.336;10.454;2022-07-30T01:54:58;100.25;;;95.85;;
46921;SDS011;44039;48.336;10.454;2022-07-30T01:57:47;100.05;;;95.63;;
46921;SDS011;44039;48.336;10.454;2022-07-30T02:00:37;99.00;;;94.60;;
46921;SDS011;44039;48.336;10.454;2022-07-30T02:03:25;97.95;;;93.55;;
46921;SDS011;44039;48.336;10.454;2022-07-30T02:06:16;99.90;;;95.30;;
46921;SDS011;44039;48.336;10.454;2022-07-30T02:09:06;102.20;;;97.45;;
46921;SDS011;44039;48.336;10.454;2022-07-30T02:11:56;102.07;;;97.53;;
46921;SDS011;44039;48.336;10.454;2022-07-30T02:18:07;102.85;;;98.15;;
46921;SDS011;44039;48.336;10.454;2022-07-30T02:21:03;104.57;;;99.85;;
46921;SDS011;44039;48.336;10.454;2022-07-30T02:23:53;101.93;;;97.43;;
46921;SDS011;44039;48.336;10.454;2022-07-30T02:26:42;101.03;;;96.65;;
46921;SDS011;44039;48.336;10.454;2022-07-30T02:29:32;99.07;;;94.60;;
46921;SDS011;44039;48.336;10.454;2022-07-30T02:32:21;102.95;;;98.25;;
46921;SDS011;44039;48.336;10.454;2022-07-30T02:35:15;102.95;;;97.80;;
46921;SDS011;44039;48.336;10.454;2022-07-30T02:38:05;98.35;;;94.05;;
46921;SDS011;44039;48.336;10.454;2022-07-30T02:40:54;101.57;;;96.85;;
46921;SDS011;44039;48.336;10.454;2022-07-30T02:43:44;99.70;;;95.20;;
46921;SDS011;44039;48.336;10.454;2022-07-30T02:46:33;100.80;;;96.32;;
46921;SDS011;44039;48.336;10.454;2022-07-30T02:49:23;99.40;;;94.78;;
46921;SDS011;44039;48.336;10.454;2022-07-30T02:52:13;98.55;;;94.28;;
46921;SDS011;44039;48.336;10.454;2022-07-30T02:55:02;97.90;;;93.60;;
46921;SDS011;44039;48.336;10.454;2022-07-30T02:57:50;97.30;;;92.95;;
46921;SDS011;44039;48.336;10.454;2022-07-30T03:00:39;97.22;;;93.22;;
46921;SDS011;44039;48.336;10.454;2022-07-30T03:03:28;98.53;;;94.13;;
46921;SDS011;44039;48.336;10.454;2022-07-30T03:06:16;97.72;;;93.47;;
46921;SDS011;44039;48.336;10.454;2022-07-30T03:09:05;101.47;;;96.43;;
46921;SDS011;44039;48.336;10.454;2022-07-30T03:11:53;97.53;;;93.30;;
46921;SDS011;44039;48.336;10.454;2022-07-30T03:14:41;100.20;;;95.57;;
46921;SDS011;44039;48.336;10.454;2022-07-30T03:17:30;96.00;;;91.93;;
46921;SDS011;44039;48.336;10.454;2022-07-30T03:20:25;100.28;;;95.75;;
46921;SDS011;44039;48.336;10.454;2022-07-30T03:23:16;99.93;;;95.45;;
46921;SDS011;44039;48.336;10.454;2022-07-30T03:26:05;101.07;;;96.30;;
46921;SDS011;44039;48.336;10.454;2022-07-30T03:28:54;100.07;;;95.03;;
46921;SDS011;44039;48.336;10.454;2022-07-30T03:31:42;100.85;;;96.35;;
46921;SDS011;44039;48.336;10.454;2022-07-30T03:34:31;101.13;;;96.68;;
46921;SDS011;44039;48.336;10.454;2022-07-30T03:37:20;99.72;;;95.38;;
46921;SDS011;44039;48.336;10.454;2022-07-30T03:40:08;97.57;;;93.35;;
46921;SDS011;44039;48.336;10.454;2022-07-30T03:42:55;99.38;;;95.03;;
46921;SDS011;44039;48.336;10.454;2022-07-30T03:45:43;100.82;;;96.43;;
46921;SDS011;44039;48.336;10.454;2022-07-30T03:48:32;100.70;;;96.38;;
46921;SDS011;44039;48.336;10.454;2022-07-30T03:51:20;99.90;;;95.25;;
46921;SDS011;44039;48.336;10.454;2022-07-30T03:54:07;98.60;;;94.28;;
46921;SDS011;44039;48.336;10.454;2022-07-30T03:57:00;103.13;;;98.72;;
46921;SDS011;44039;48.336;10.454;2022-07-30T03:59:48;99.97;;;95.60;;
46921;SDS011;44039;48.336;10.454;2022-07-30T04:02:43;99.47;;;95.07;;
46921;SDS011;44039;48.336;10.454;2022-07-30T04:05:31;102.25;;;97.47;;
46921;SDS011;44039;48.336;10.454;2022-07-30T04:08:27;97.70;;;93.45;;
46921;SDS011;44039;48.336;10.454;2022-07-30T04:11:14;102.10;;;96.97;;
46921;SDS011;44039;48.336;10.454;2022-07-30T04:14:01;100.35;;;95.63;;
46921;SDS011;44039;48.336;10.454;2022-07-30T04:19:52;100.78;;;96.30;;
46921;SDS011;44039;48.336;10.454;2022-07-30T04:22:47;98.22;;;93.90;;
46921;SDS011;44039;48.336;10.454;2022-07-30T04:25:35;99.22;;;94.93;;
46921;SDS011;44039;48.336;10.454;2022-07-30T04:28:23;97.75;;;93.53;;
46921;SDS011;44039;48.336;10.454;2022-07-30T04:31:12;99.38;;;94.68;;
46921;SDS011;44039;48.336;10.454;2022-07-30T04:34:00;99.78;;;95.45;;
46921;SDS011;44039;48.336;10.454;2022-07-30T04:36:50;98.78;;;94.38;;
46921;SDS011;44039;48.336;10.454;2022-07-30T04:39:37;98.03;;;93.53;;
46921;SDS011;44039;48.336;10.454;2022-07-30T04:42:25;99.53;;;95.13;;
46921;SDS011;44039;48.336;10.454;2022-07-30T04:45:13;100.18;;;95.78;;
46921;SDS011;44039;48.336;10.454;2022-07-30T04:48:00;100.63;;;96.22;;
46921;SDS011;44039;48.336;10.454;2022-07-30T04:50:48;98.25;;;94.15;;
46921;SDS011;44039;48.336;10.454;2022-07-30T04:53:37;100.82;;;96.32;;
46921;SDS011;44039;48.336;10.454;2022-07-30T04:56:25;102.05;;;97.55;;
46921;SDS011;44039;48.336;10.454;2022-07-30T04:59:16;102.68;;;98.05;;
46921;SDS011;44039;48.336;10.454;2022-07-30T05:02:05;100.68;;;96.38;;
46921;SDS011;44039;48.336;10.454;2022-07-30T05:04:54;105.90;;;101.20;;
46921;SDS011;44039;48.336;10.454;2022-07-30T05:07:45;103.43;;;99.05;;
46921;SDS011;44039;48.336;10.454;2022-07-30T05:10:32;103.05;;;98.45;;
46921;SDS011;44039;48.336;10.454;2022-07-30T05:13:19;107.78;;;102.90;;
46921;SDS011;44039;48.336;10.454;2022-07-30T05:16:08;104.97;;;100.43;;
46921;SDS011;44039;48.336;10.454;2022-07-30T05:18:55;110.22;;;104.85;;
46921;SDS011;44039;48.336;10.454;2022-07-30T05:21:42;107.80;;;103.18;;
46921;SDS011;44039;48.336;10.454;2022-07-30T05:24:29;109.03;;;104.25;;
46921;SDS011;44039;48.336;10.454;2022-07-30T05:27:16;111.38;;;106.43;;
46921;SDS011;44039;48.336;10.454;2022-07-30T05:30:06;114.65;;;109.68;;
46921;SDS011;44039;48.336;10.454;2022-07-30T05:32:54;124.43;;;119.38;;
46921;SDS011;44039;48.336;10.454;2022-07-30T05:35:41;129.63;;;124.65;;
46921;SDS011;44039;48.336;10.454;2022-07-30T05:38:28;132.10;;;126.90;;
46921;SDS011;44039;48.336;10.454;2022-07-30T05:41:15;141.13;;;135.13;;
46921;SDS011;44039;48.336;10.454;2022-07-30T05:44:17;139.77;;;133.88;;
46921;SDS011;44039;48.336;10.454;2022-07-30T05:47:09;135.55;;;129.80;;
46921;SDS011;44039;48.336;10.454;2022-07-30T05:49:56;133.23;;;127.60;;
46921;SDS011;44039;48.336;10.454;2022-07-30T05:52:50;135.53;;;130.03;;
46921;SDS011;44039;48.336;10.454;2022-07-30T05:55:37;136.00;;;130.50;;
46921;SDS011;44039;48.336;10.454;2022-07-30T05:58:24;136.05;;;130.25;;
46921;SDS011;44039;48.336;10.454;2022-07-30T06:01:11;132.00;;;126.15;;
46921;SDS011;44039;48.336;10.454;2022-07-30T06:03:58;129.25;;;123.97;;
46921;SDS011;44039;48.336;10.454;2022-07-30T06:06:45;138.77;;;133.07;;
46921;SDS011;44039;48.336;10.454;2022-07-30T06:09:32;142.75;;;137.15;;
46921;SDS011;44039;48.336;10.454;2022-07-30T06:12:22;146.40;;;140.18;;
46921;SDS011;44039;48.336;10.454;2022-07-30T06:15:09;147.50;;;141.40;;
46921;SDS011;44039;48.336;10.454;2022-07-30T06:17:57;147.55;;;141.40;;
46921;SDS011;44039;48.336;10.454;2022-07-30T06:20:48;148.00;;;141.90;;
46921;SDS011;44039;48.336;10.454;2022-07-30T06:23:37;148.32;;;142.20;;
46921;SDS011;44039;48.336;10.454;2022-07-30T06:26:24;148.88;;;142.48;;
46921;SDS011;44039;48.336;10.454;2022-07-30T06:29:11;152.55;;;145.93;;
46921;SDS011;44039;48.336;10.454;2022-07-30T06:31:59;150.98;;;144.57;;
46921;SDS011;44039;48.336;10.454;2022-07-30T06:34:46;156.93;;;150.52;;
46921;SDS011;44039;48.336;10.454;2022-07-30T06:37:33;151.27;;;144.90;;
46921;SDS011;44039;48.336;10.454;2022-07-30T06:40:40;155.07;;;148.48;;
46921;SDS011;44039;48.336;10.454;2022-07-30T06:43:27;158.68;;;152.40;;
46921;SDS011;44039;48.336;10.454;2022-07-30T06:46:14;165.18;;;158.60;;
46921;SDS011;44039;48.336;10.454;2022-07-30T06:49:01;168.45;;;160.98;;
46921;SDS011;44039;48.336;10.454;2022-07-30T06:51:49;159.13;;;152.05;;
46921;SDS011;44039;48.336;10.454;2022-07-30T06:54:37;159.57;;;153.15;;
46921;SDS011;44039;48.336;10.454;2022-07-30T06:57:24;157.52;;;150.85;;
46921;SDS011;44039;48.336;10.454;2022-07-30T07:00:11;153.00;;;146.50;;
46921;SDS011;44039;48.336;10.454;2022-07-30T07:02:58;153.70;;;147.30;;
46921;SDS011;44039;48.336;10.454;2022-07-30T07:05:45;159.13;;;152.63;;
46921;SDS011;44039;48.336;10.454;2022-07-30T07:08:34;165.85;;;158.82;;
46921;SDS011;44039;48.336;10.454;2022-07-30T07:11:24;168.02;;;160.77;;
46921;SDS011;44039;48.336;10.454;2022-07-30T07:14:11;172.45;;;165.45;;
46921;SDS011;44039;48.336;10.454;2022-07-30T07:16:58;175.43;;;168.60;;
46921;SDS011;44039;48.336;10.454;2022-07-30T07:19:46;174.00;;;167.35;;
46921;SDS011;44039;48.336;10.454;2022-07-30T07:22:47;178.45;;;171.45;;
46921;SDS011;44039;48.336;10.454;2022-07-30T07:25:35;177.43;;;170.63;;
46921;SDS011;44039;48.336;10.454;2022-07-30T07:28:22;181.98;;;175.00;;
46921;SDS011;44039;48.336;10.454;2022-07-30T07:31:19;174.98;;;167.88;;
46921;SDS011;44039;48.336;10.454;2022-07-30T07:34:26;174.23;;;167.43;;
46921;SDS011;44039;48.336;10.454;2022-07-30T07:37:13;174.55;;;167.85;;
46921;SDS011;44039;48.336;10.454;2022-07-30T07:40:01;185.85;;;178.88;;
46921;SDS011;44039;48.336;10.454;2022-07-30T07:42:49;181.05;;;174.23;;
46921;SDS011;44039;48.336;10.454;2022-07-30T07:45:36;180.40;;;173.30;;
46921;SDS011;44039;48.336;10.454;2022-07-30T07:48:24;176.27;;;169.57;;
46921;SDS011;44039;48.336;10.454;2022-07-30T07:51:11;179.85;;;172.88;;
46921;SDS011;44039;48.336;10.454;2022-07-30T07:53:58;189.20;;;182.13;;
46921;SDS011;44039;48.336;10.454;2022-07-30T07:57:06;191.90;;;184.85;;
46921;SDS011;44039;48.336;10.454;2022-07-30T07:59:57;188.50;;;181.40;;
46921;SDS011;44039;48.336;10.454;2022-07-30T08:02:44;186.60;;;179.65;;
46921;SDS011;44039;48.336;10.454;2022-07-30T08:05:32;189.82;;;182.73;;
46921;SDS011;44039;48.336;10.454;2022-07-30T08:08:39;188.30;;;181.43;;
46921;SDS011;44039;48.336;10.454;2022-07-30T08:11:27;191.95;;;184.75;;
46921;SDS011;44039;48.336;10.454;2022-07-30T08:14:14;190.57;;;183.48;;
46921;SDS011;44039;48.336;10.454;2022-07-30T08:17:01;192.00;;;184.55;;
46921;SDS011;44039;48.336;10.454;2022-07-30T08:19:48;185.30;;;178.40;;
46921;SDS011;44039;48.336;10.454;2022-07-30T08:22:36;184.32;;;177.38;;
46921;SDS011;44039;48.336;10.454;2022-07-30T08:25:23;187.90;;;180.90;;
46921;SDS011;44039;48.336;10.454;2022-07-30T08:28:11;194.70;;;187.27;;
46921;SDS011;44039;48.336;10.454;2022-07-30T08:31:18;192.23;;;184.90;;
46921;SDS011;44039;48.336;10.454;2022-07-30T08:34:05;186.80;;;179.80;;
46921;SDS011;44039;48.336;10.454;2022-07-30T08:36:52;192.88;;;185.30;;
46921;SDS011;44039;48.336;10.454;2022-07-30T08:39:39;188.07;;;180.88;;
46921;SDS011;44039;48.336;10.454;2022-07-30T08:42:26;192.50;;;185.30;;
46921;SDS011;44039;48.336;10.454;2022-07-30T08:45:15;184.55;;;177.95;;
46921;SDS011;44039;48.336;10.454;2022-07-30T08:48:06;189.35;;;182.13;;
46921;SDS011;44039;48.336;10.454;2022-07-30T08:51:01;187.77;;;180.75;;
46921;SDS011;44039;48.336;10.454;2022-07-30T08:53:49;193.38;;;185.77;;
46921;SDS011;44039;48.336;10.454;2022-07-30T08:56:36;190.82;;;183.23;;
46921;SDS011;44039;48.336;10.454;2022-07-30T08:59:24;198.70;;;191.25;;
46921;SDS011;44039;48.336;10.454;2022-07-30T09:02:32;194.40;;;187.35;;
46921;SDS011;44039;48.336;10.454;2022-07-30T09:05:20;180.50;;;173.85;;
46921;SDS011;44039;48.336;10.454;2022-07-30T09:08:07;180.90;;;174.02;;
46921;SDS011;44039;48.336;10.454;2022-07-30T09:10:54;190.73;;;183.63;;
46921;SDS011;44039;48.336;10.454;2022-07-30T09:13:42;185.95;;;178.85;;
46921;SDS011;44039;48.336;10.454;2022-07-30T09:16:30;172.52;;;166.10;;
46921;SDS011;44039;48.336;10.454;2022-07-30T09:19:18;186.27;;;179.05;;
46921;SDS011;44039;48.336;10.454;2022-07-30T09:22:07;186.65;;;179.57;;
46921;SDS011;44039;48.336;10.454;2022-07-30T09:24:54;176.23;;;169.48;;
46921;SDS011;44039;48.336;10.454;2022-07-30T09:27:47;183.35;;;176.27;;
46921;SDS011;44039;48.336;10.454;2022-07-30T09:33:33;206.10;;;198.60;;
46921;SDS011;44039;48.336;10.454;2022-07-30T09:36:22;198.15;;;190.90;;
46921;SDS011;44039;48.336;10.454;2022-07-30T09:39:09;181.32;;;174.52;;
46921;SDS011;44039;48.336;10.454;2022-07-30T09:41:56;189.15;;;182.05;;
46921;SDS011;44039;48.336;10.454;2022-07-30T09:44:44;188.50;;;181.45;;
46921;SDS011;44039;48.336;10.454;2022-07-30T09:47:36;204.18;;;196.88;;
46921;SDS011;44039;48.336;10.454;2022-07-30T09:50:24;204.27;;;196.98;;
46921;SDS011;44039;48.336;10.454;2022-07-30T09:53:16;212.73;;;205.05;;
46921;SDS011;44039;48.336;10.454;2022-07-30T09:56:37;206.40;;;199.23;;
46921;SDS011;44039;48.336;10.454;2022-07-30T09:59:27;211.23;;;203.50;;
46921;SDS011;44039;48.336;10.454;2022-07-30T10:02:27;205.27;;;198.03;;
46921;SDS011;44039;48.336;10.454;2022-07-30T10:05:18;212.07;;;204.70;;
46921;SDS011;44039;48.336;10.454;2022-07-30T10:08:06;207.20;;;200.05;;
46921;SDS011;44039;48.336;10.454;2022-07-30T10:11:04;210.57;;;203.23;;
46921;SDS011;44039;48.336;10.454;2022-07-30T10:13:55;216.25;;;208.70;;
46921;SDS011;44039;48.336;10.454;2022-07-30T10:16:45;210.45;;;202.85;;
46921;SDS011;44039;48.336;10.454;2022-07-30T10:19:33;213.32;;;205.88;;
46921;SDS011;44039;48.336;10.454;2022-07-30T10:22:27;213.25;;;206.02;;
46921;SDS011;44039;48.336;10.454;2022-07-30T10:25:18;216.25;;;208.35;;
46921;SDS011;44039;48.336;10.454;2022-07-30T10:28:13;220.65;;;212.45;;
46921;SDS011;44039;48.336;10.454;2022-07-30T10:31:02;229.00;;;221.20;;
46921;SDS011;44039;48.336;10.454;2022-07-30T10:34:11;231.70;;;223.63;;
46921;SDS011;44039;48.336;10.454;2022-07-30T10:37:00;229.82;;;221.93;;
46921;SDS011;44039;48.336;10.454;2022-07-30T10:39:54;223.77;;;216.07;;
46921;SDS011;44039;48.336;10.454;2022-07-30T10:45:42;195.45;;;188.35;;
46921;SDS011;44039;48.336;10.454;2022-07-30T10:48:46;185.73;;;178.48;;
46921;SDS011;44039;48.336;10.454;2022-07-30T10:51:41;179.45;;;172.48;;
46921;SDS011;44039;48.336;10.454;2022-07-30T10:57:24;205.57;;;198.18;;
46921;SDS011;44039;48.336;10.454;2022-07-30T11:00:18;202.23;;;195.15;;
46921;SDS011;44039;48.336;10.454;2022-07-30T11:09:53;223.35;;;215.45;;
46921;SDS011;44039;48.336;10.454;2022-07-30T11:15:57;212.93;;;205.25;;
46921;SDS011;44039;48.336;10.454;2022-07-30T11:19:01;215.68;;;207.88;;
46921;SDS011;44039;48.336;10.454;2022-07-30T11:28:34;202.20;;;194.80;;
46921;SDS011;44039;48.336;10.454;2022-07-30T11:31:24;200.30;;;193.30;;
46921;SDS011;44039;48.336;10.454;2022-07-30T11:34:31;205.00;;;197.60;;
46921;SDS011;44039;48.336;10.454;2022-07-30T11:37:19;220.75;;;212.95;;
46921;SDS011;44039;48.336;10.454;2022-07-30T11:40:17;226.10;;;218.32;;
46921;SDS011;44039;48.336;10.454;2022-07-30T11:46:22;219.25;;;211.75;;
46921;SDS011;44039;48.336;10.454;2022-07-30T11:49:15;209.45;;;201.77;;
46921;SDS011;44039;48.336;10.454;2022-07-30T11:52:02;205.25;;;197.63;;
46921;SDS011;44039;48.336;10.454;2022-07-30T11:54:53;214.93;;;207.32;;
46921;SDS011;44039;48.336;10.454;2022-07-30T11:57:41;218.07;;;210.35;;
46921;SDS011;44039;48.336;10.454;2022-07-30T12:00:35;208.35;;;200.85;;
46921;SDS011;44039;48.336;10.454;2022-07-30T12:03:24;198.57;;;191.43;;
46921;SDS011;44039;48.336;10.454;2022-07-30T12:06:17;198.00;;;190.95;;
46921;SDS011;44039;48.336;10.454;2022-07-30T12:09:05;189.57;;;181.98;;
46921;SDS011;44039;48.336;10.454;2022-07-30T12:11:56;192.25;;;185.18;;
46921;SDS011;44039;48.336;10.454;2022-07-30T12:14:43;195.20;;;188.15;;
46921;SDS011;44039;48.336;10.454;2022-07-30T12:17:42;222.38;;;214.60;;
46921;SDS011;44039;48.336;10.454;2022-07-30T12:20:30;215.98;;;208.48;;
46921;SDS011;44039;48.336;10.454;2022-07-30T12:23:17;205.35;;;197.95;;
46921;SDS011;44039;48.336;10.454;2022-07-30T12:26:08;193.50;;;186.43;;
46921;SDS011;44039;48.336;10.454;2022-07-30T12:29:06;202.13;;;194.23;;
46921;SDS011;44039;48.336;10.454;2022-07-30T12:31:57;214.65;;;206.63;;
46921;SDS011;44039;48.336;10.454;2022-07-30T12:34:52;218.35;;;210.70;;
46921;SDS011;44039;48.336;10.454;2022-07-30T12:37:43;223.65;;;215.93;;
46921;SDS011;44039;48.336;10.454;2022-07-30T12:40:51;203.35;;;196.15;;
46921;SDS011;44039;48.336;10.454;2022-07-30T12:46:38;203.68;;;196.40;;
46921;SDS011;44039;48.336;10.454;2022-07-30T12:49:27;200.57;;;193.45;;
46921;SDS011;44039;48.336;10.454;2022-07-30T12:52:34;217.05;;;209.27;;
46921;SDS011;44039;48.336;10.454;2022-07-30T12:55:28;221.55;;;213.77;;
46921;SDS011;44039;48.336;10.454;2022-07-30T12:58:19;215.25;;;207.57;;
46921;SDS011;44039;48.336;10.454;2022-07-30T13:01:07;214.68;;;207.13;;
46921;SDS011;44039;48.336;10.454;2022-07-30T13:04:03;222.27;;;214.50;;
46921;SDS011;44039;48.336;10.454;2022-07-30T13:10:04;221.68;;;214.02;;
46921;SDS011;44039;48.336;10.454;2022-07-30T13:12:55;212.73;;;205.15;;
46921;SDS011;44039;48.336;10.454;2022-07-30T13:15:43;218.68;;;211.13;;
46921;SDS011;44039;48.336;10.454;2022-07-30T13:18:42;221.05;;;213.52;;
46921;SDS011;44039;48.336;10.454;2022-07-30T13:21:29;225.63;;;217.85;;
46921;SDS011;44039;48.336;10.454;2022-07-30T13:24:16;225.55;;;217.77;;
46921;SDS011;44039;48.336;10.454;2022-07-30T13:27:04;226.88;;;218.88;;
46921;SDS011;44039;48.336;10.454;2022-07-30T13:29:51;238.30;;;230.27;;
46921;SDS011;44039;48.336;10.454;2022-07-30T13:32:38;229.90;;;222.20;;
46921;SDS011;44039;48.336;10.454;2022-07-30T13:35:26;233.98;;;226.10;;
46921;SDS011;44039;48.336;10.454;2022-07-30T13:38:13;241.70;;;233.57;;
46921;SDS011;44039;48.336;10.454;2022-07-30T13:41:01;238.68;;;230.50;;
46921;SDS011;44039;48.336;10.454;2022-07-30T13:43:50;239.25;;;231.40;;
46921;SDS011;44039;48.336;10.454;2022-07-30T13:46:36;240.65;;;232.90;;
46921;SDS011;44039;48.336;10.454;2022-07-30T13:49:27;238.30;;;230.23;;
46921;SDS011;44039;48.336;10.454;2022-07-30T13:52:15;234.45;;;226.30;;
46921;SDS011;44039;48.336;10.454;2022-07-30T13:55:02;227.32;;;219.35;;
46921;SDS011;44039;48.336;10.454;2022-07-30T13:57:49;217.10;;;209.70;;
46921;SDS011;44039;48.336;10.454;2022-07-30T14:00:37;207.50;;;200.35;;
46921;SDS011;44039;48.336;10.454;2022-07-30T14:03:24;212.88;;;205.57;;
46921;SDS011;44039;48.336;10.454;2022-07-30T14:06:11;219.43;;;211.73;;
46921;SDS011;44039;48.336;10.454;2022-07-30T14:08:58;229.27;;;220.73;;
46921;SDS011;44039;48.336;10.454;2022-07-30T14:11:45;218.82;;;211.38;;
46921;SDS011;44039;48.336;10.454;2022-07-30T14:14:32;222.73;;;215.15;;
46921;SDS011;44039;48.336;10.454;2022-07-30T14:17:19;233.32;;;225.35;;
46921;SDS011;44039;48.336;10.454;2022-07-30T14:20:06;242.57;;;234.32;;
46921;SDS011;44039;48.336;10.454;2022-07-30T14:22:53;239.95;;;231.95;;
46921;SDS011;44039;48.336;10.454;2022-07-30T14:25:41;238.43;;;230.23;;
46921;SDS011;44039;48.336;10.454;2022-07-30T14:28:29;239.93;;;231.88;;
46921;SDS011;44039;48.336;10.454;2022-07-30T14:31:16;242.13;;;234.00;;
46921;SDS011;44039;48.336;10.454;2022-07-30T14:34:03;236.65;;;228.73;;
46921;SDS011;44039;48.336;10.454;2022-07-30T14:36:51;232.02;;;224.40;;
46921;SDS011;44039;48.336;10.454;2022-07-30T14:39:38;221.15;;;213.65;;
46921;SDS011;44039;48.336;10.454;2022-07-30T14:42:25;207.00;;;199.55;;
46921;SDS011;44039;48.336;10.454;2022-07-30T14:45:13;200.77;;;193.98;;
46921;SDS011;44039;48.336;10.454;2022-07-30T14:48:00;214.57;;;207.10;;
46921;SDS011;44039;48.336;10.454;2022-07-30T14:50:48;224.85;;;217.25;;
46921;SDS011;44039;48.336;10.454;2022-07-30T14:53:55;220.55;;;212.85;;
46921;SDS011;44039;48.336;10.454;2022-07-30T14:56:42;222.75;;;215.27;;
46921;SDS011;44039;48.336;10.454;2022-07-30T14:59:29;225.07;;;217.57;;
46921;SDS011;44039;48.336;10.454;2022-07-30T15:02:16;222.50;;;214.45;;
46921;SDS011;44039;48.336;10.454;2022-07-30T15:05:03;222.85;;;215.20;;
46921;SDS011;44039;48.336;10.454;2022-07-30T15:07:51;220.50;;;213.10;;
46921;SDS011;44039;48.336;10.454;2022-07-30T15:10:38;218.48;;;210.85;;
46921;SDS011;44039;48.336;10.454;2022-07-30T15:13:27;218.75;;;211.30;;
46921;SDS011;44039;48.336;10.454;2022-07-30T15:16:17;217.07;;;209.38;;
46921;SDS011;44039;48.336;10.454;2022-07-30T15:19:04;215.15;;;207.05;;
46921;SDS011;44039;48.336;10.454;2022-07-30T15:21:51;208.75;;;201.40;;
46921;SDS011;44039;48.336;10.454;2022-07-30T15:24:38;205.43;;;198.50;;
46921;SDS011;44039;48.336;10.454;2022-07-30T15:27:25;206.38;;;199.18;;
46921;SDS011;44039;48.336;10.454;2022-07-30T15:30:20;204.07;;;196.98;;
46921;SDS011;44039;48.336;10.454;2022-07-30T15:33:07;206.45;;;199.38;;
46921;SDS011;44039;48.336;10.454;2022-07-30T15:35:54;204.27;;;197.07;;
46921;SDS011;44039;48.336;10.454;2022-07-30T15:38:41;208.13;;;200.43;;
46921;SDS011;44039;48.336;10.454;2022-07-30T15:41:31;211.82;;;204.60;;
46921;SDS011;44039;48.336;10.454;2022-07-30T15:44:19;205.27;;;198.13;;
46921;SDS011;44039;48.336;10.454;2022-07-30T15:47:06;204.25;;;196.85;;
46921;SDS011;44039;48.336;10.454;2022-07-30T15:49:58;207.38;;;200.18;;
46921;SDS011;44039;48.336;10.454;2022-07-30T15:52:45;209.77;;;202.60;;
46921;SDS011;44039;48.336;10.454;2022-07-30T15:55:33;209.25;;;202.05;;
46921;SDS011;44039;48.336;10.454;2022-07-30T15:58:33;205.02;;;197.95;;
46921;SDS011;44039;48.336;10.454;2022-07-30T16:01:23;208.20;;;200.70;;
46921;SDS011;44039;48.336;10.454;2022-07-30T16:04:10;200.48;;;193.57;;
46921;SDS011;44039;48.336;10.454;2022-07-30T16:07:05;203.32;;;196.02;;
46921;SDS011;44039;48.336;10.454;2022-07-30T16:09:53;202.82;;;195.68;;
46921;SDS011;44039;48.336;10.454;2022-07-30T16:12:40;198.88;;;191.98;;
46921;SDS011;44039;48.336;10.454;2022-07-30T16:15:27;195.95;;;188.85;;
46921;SDS011;44039;48.336;10.454;2022-07-30T16:18:15;198.65;;;191.68;;
46921;SDS011;44039;48.336;10.454;2022-07-30T16:21:02;199.13;;;192.23;;
46921;SDS011;44039;48.336;10.454;2022-07-30T16:23:49;196.88;;;189.98;;
46921;SDS011;44039;48.336;10.454;2022-07-30T16:26:38;201.70;;;194.85;;
46921;SDS011;44039;48.336;10.454;2022-07-30T16:29:25;196.85;;;189.95;;
46921;SDS011;44039;48.336;10.454;2022-07-30T16:32:12;196.15;;;189.43;;
46921;SDS011;44039;48.336;10.454;2022-07-30T16:35:00;198.80;;;191.80;;
46921;SDS011;44039;48.336;10.454;2022-07-30T16:37:47;200.63;;;193.63;;
46921;SDS011;44039;48.336;10.454;2022-07-30T16:40:34;198.05;;;191.13;;